Time;durP1;ratioP1;P1;durP2;ratioP2;P2;SDS_P1;SDS_P2;PMS_P1;PMS_P2;Temp;Humidity;BMP_temperature;BMP_pressure;BME280_temperature;BME280_humidity;BME280_pressure;Samples;Min_cycle;Max_cycle;Signal;HPM_P1;HPM_P2
2023/01/04 00:00:34;;;;;;;7.30;2.50;;;;;;;5.45;82.55;101798.69;2104708;28;20277;-63
2023/01/04 00:01:39;;;;;;;5.70;1.92;;;;;;;5.39;82.84;101795.06;2096917;28;20294;-64
2023/01/04 00:02:41;;;;;;;6.60;2.20;;;;;;;5.37;82.85;101796.31;2086052;28;20295;-64
2023/01/04 00:03:43;;;;;;;5.43;2.30;;;;;;;5.39;83.14;101796.88;2078316;28;20299;-63
2023/01/04 00:04:46;;;;;;;6.80;1.83;;;;;;;5.44;83.09;101805.09;2090676;28;20287;-63
2023/01/04 00:05:49;;;;;;;5.75;2.15;;;;;;;5.44;83.27;101797.06;2097876;28;20301;-63
2023/01/04 00:06:52;;;;;;;7.60;2.50;;;;;;;5.35;82.99;101801.84;2099718;28;20670;-63
2023/01/04 00:07:54;;;;;;;7.25;2.30;;;;;;;5.34;83.24;101801.03;2088258;28;20295;-64
2023/01/04 00:09:00;;;;;;;6.20;2.30;;;;;;;5.35;83.16;101791.97;2088867;28;20694;-63
2023/01/04 00:10:02;;;;;;;6.25;2.20;;;;;;;5.29;83.02;101798.16;2104342;28;20266;-63
2023/01/04 00:11:09;;;;;;;10.77;2.33;;;;;;;5.30;82.95;101799.81;2096634;28;20754;-64
2023/01/04 00:12:12;;;;;;;9.05;2.30;;;;;;;5.32;83.40;101803.06;2081510;28;20384;-64
2023/01/04 00:13:14;;;;;;;6.30;2.17;;;;;;;5.31;82.99;101795.31;2089334;28;20782;-63
2023/01/04 00:14:19;;;;;;;6.72;2.30;;;;;;;5.28;83.08;101799.22;2113790;28;20339;-63
2023/01/04 00:15:21;;;;;;;4.47;2.13;;;;;;;5.23;82.87;101803.53;2088725;28;20291;-63
2023/01/04 00:16:24;;;;;;;8.02;2.72;;;;;;;5.18;83.13;101798.84;2072412;28;20292;-63
2023/01/04 00:17:27;;;;;;;6.93;2.45;;;;;;;5.16;83.48;101794.75;2089805;28;20276;-63
2023/01/04 00:18:30;;;;;;;10.00;2.65;;;;;;;5.15;83.36;101793.94;2105519;28;20820;-63
2023/01/04 00:19:32;;;;;;;5.47;2.13;;;;;;;5.12;83.27;101797.03;2096673;28;20504;-64
2023/01/04 00:20:35;;;;;;;8.63;2.60;;;;;;;5.05;83.69;101797.06;2080227;28;20295;-63
2023/01/04 00:21:42;;;;;;;7.78;2.28;;;;;;;5.07;83.39;101802.16;2081156;28;20280;-63
2023/01/04 00:22:45;;;;;;;7.40;2.28;;;;;;;5.11;84.11;101806.88;2090585;28;20287;-64
2023/01/04 00:23:54;;;;;;;7.30;2.38;;;;;;;5.08;83.72;101806.50;2089080;28;20341;-63
2023/01/04 00:24:57;;;;;;;5.55;2.35;;;;;;;5.16;83.92;101808.91;2090978;28;20647;-63
2023/01/04 00:26:06;;;;;;;6.68;2.28;;;;;;;5.09;84.33;101811.59;2097576;28;20040;-63
2023/01/04 00:27:08;;;;;;;7.30;2.33;;;;;;;5.12;83.87;101815.69;2089318;28;20295;-63
2023/01/04 00:28:10;;;;;;;11.75;2.78;;;;;;;5.19;84.41;101815.66;2080777;28;20287;-64
2023/01/04 00:29:13;;;;;;;10.20;2.35;;;;;;;5.30;84.44;101815.81;2097071;28;20286;-64
2023/01/04 00:30:16;;;;;;;5.85;2.30;;;;;;;5.34;84.51;101817.03;2089034;28;20291;-63
2023/01/04 00:31:18;;;;;;;6.63;2.58;;;;;;;5.41;84.66;101816.19;2089240;28;20283;-64
2023/01/04 00:32:21;;;;;;;7.97;2.80;;;;;;;5.45;84.13;101810.19;2105485;28;20270;-63
2023/01/04 00:33:23;;;;;;;13.30;2.40;;;;;;;5.48;84.08;101811.63;2080296;28;20288;-64
2023/01/04 00:34:28;;;;;;;5.10;2.20;;;;;;;5.56;84.46;101814.03;2081782;28;20284;-64
2023/01/04 00:35:32;;;;;;;7.18;2.25;;;;;;;5.60;84.07;101799.25;2089138;28;20287;-63
2023/01/04 00:36:35;;;;;;;6.63;2.20;;;;;;;5.50;83.49;101810.38;2080853;28;20293;-63
2023/01/04 00:37:37;;;;;;;6.00;2.42;;;;;;;5.50;83.73;101817.56;2089036;28;20613;-63
2023/01/04 00:38:41;;;;;;;7.25;2.72;;;;;;;5.40;83.36;101817.22;2097093;28;21008;-63
2023/01/04 00:39:46;;;;;;;6.93;2.58;;;;;;;5.39;83.29;101812.88;2088578;28;20279;-63
2023/01/04 00:40:52;;;;;;;5.25;2.35;;;;;;;5.33;83.32;101819.91;2090001;28;20291;-63
2023/01/04 00:42:03;;;;;;;7.03;2.70;;;;;;;5.25;82.57;101812.97;2089238;28;20314;-63
2023/01/04 00:43:06;;;;;;;6.53;2.45;;;;;;;5.23;83.14;101823.03;2090199;28;20294;-63
2023/01/04 00:44:09;;;;;;;8.18;2.35;;;;;;;5.19;82.95;101818.31;2088893;28;20861;-63
2023/01/04 00:45:12;;;;;;;4.68;2.22;;;;;;;5.22;83.22;101823.25;2097037;28;20299;-63
2023/01/04 00:46:15;;;;;;;11.60;2.75;;;;;;;5.14;83.32;101820.78;2080534;28;20280;-63
2023/01/04 00:47:20;;;;;;;6.85;2.40;;;;;;;5.15;83.46;101825.94;2081008;28;20304;-63
2023/01/04 00:48:23;;;;;;;8.20;2.55;;;;;;;5.13;82.84;101813.84;2097249;28;20283;-63
2023/01/04 00:49:26;;;;;;;6.03;2.05;;;;;;;5.07;83.06;101815.50;2104909;28;20286;-63
2023/01/04 00:50:29;;;;;;;8.25;2.45;;;;;;;5.06;83.58;101813.88;2105033;28;20294;-64
2023/01/04 00:51:32;;;;;;;6.18;2.72;;;;;;;5.12;83.30;101813.03;2105261;28;20278;-63
2023/01/04 00:52:36;;;;;;;8.23;2.50;;;;;;;5.18;83.27;101814.84;2105539;28;20290;-63
2023/01/04 00:53:43;;;;;;;6.57;2.50;;;;;;;5.21;83.40;101817.09;2105386;28;20281;-63
2023/01/04 00:54:48;;;;;;;7.20;2.35;;;;;;;5.28;83.59;101817.06;2106451;28;20637;-63
2023/01/04 00:55:50;;;;;;;8.15;2.50;;;;;;;5.29;83.74;101808.03;2105164;28;20800;-63
2023/01/04 00:56:56;;;;;;;8.30;2.50;;;;;;;5.26;83.29;101814.59;2105475;28;20262;-63
2023/01/04 00:57:58;;;;;;;9.75;2.50;;;;;;;5.28;83.44;101807.22;2106237;28;20301;-63
2023/01/04 00:59:02;;;;;;;5.70;2.40;;;;;;;5.31;83.20;101806.78;2098369;28;20275;-63
2023/01/04 01:00:08;;;;;;;8.82;2.33;;;;;;;5.31;82.99;101813.97;2098843;28;20290;-63
2023/01/04 01:01:12;;;;;;;6.80;2.42;;;;;;;5.31;83.35;101817.44;2099135;28;20345;-63
2023/01/04 01:02:14;;;;;;;7.97;2.17;;;;;;;5.26;82.82;101814.59;2098041;28;20305;-63
2023/01/04 01:03:17;;;;;;;4.70;2.42;;;;;;;5.25;82.52;101817.47;2098509;28;20298;-63
2023/01/04 01:04:21;;;;;;;5.32;2.50;;;;;;;5.20;82.97;101811.97;2098369;28;20302;-63
2023/01/04 01:05:26;;;;;;;7.28;2.40;;;;;;;5.19;82.84;101811.13;2106227;28;20634;-63
2023/01/04 01:06:31;;;;;;;5.97;2.33;;;;;;;5.17;82.88;101821.22;2098083;28;20302;-63
2023/01/04 01:07:37;;;;;;;5.72;2.38;;;;;;;5.13;82.72;101813.84;2098614;28;20309;-63
2023/01/04 01:08:42;;;;;;;4.20;2.40;;;;;;;5.09;82.68;101808.94;2114055;28;20285;-63
2023/01/04 01:09:47;;;;;;;6.05;2.63;;;;;;;5.02;82.35;101820.66;2090039;28;20295;-63
2023/01/04 01:10:51;;;;;;;3.38;2.28;;;;;;;5.00;82.78;101804.84;2083098;28;20288;-63
2023/01/04 01:11:53;;;;;;;7.70;2.58;;;;;;;5.00;82.91;101814.72;2090478;28;20674;-63
2023/01/04 01:12:59;;;;;;;6.15;2.38;;;;;;;5.04;83.20;101810.59;2091134;28;20290;-63
2023/01/04 01:14:01;;;;;;;3.60;2.20;;;;;;;5.01;82.67;101811.00;2098372;28;20766;-63
2023/01/04 01:15:08;;;;;;;5.72;2.17;;;;;;;5.00;82.56;101804.03;2096793;28;20654;-63
2023/01/04 01:16:16;;;;;;;4.75;2.20;;;;;;;5.04;83.04;101813.25;2091117;28;20335;-63
2023/01/04 01:17:21;;;;;;;9.15;2.67;;;;;;;4.96;82.89;101814.31;2099205;28;20279;-63
2023/01/04 01:18:26;;;;;;;7.38;1.98;;;;;;;4.88;82.76;101814.53;2106478;28;20286;-63
2023/01/04 01:19:29;;;;;;;7.70;2.15;;;;;;;4.90;82.79;101815.16;2098560;28;20630;-63
2023/01/04 01:20:31;;;;;;;7.05;2.42;;;;;;;4.90;82.67;101812.50;2098372;28;20286;-63
2023/01/04 01:21:36;;;;;;;9.15;3.33;;;;;;;4.94;83.01;101807.56;2089910;28;20306;-63
2023/01/04 01:22:41;;;;;;;5.63;2.33;;;;;;;5.01;83.11;101808.34;2091733;28;20659;-63
2023/01/04 01:23:47;;;;;;;9.55;2.30;;;;;;;4.97;82.43;101804.47;2098010;28;20279;-63
2023/01/04 01:24:49;;;;;;;6.60;2.45;;;;;;;4.93;82.65;101804.06;2090011;28;20287;-63
2023/01/04 01:25:50;;;;;;;5.18;2.20;;;;;;;4.86;81.95;101800.63;2073486;28;20303;-63
2023/01/04 01:26:57;;;;;;;5.63;1.98;;;;;;;4.81;82.02;101785.25;2074634;28;20289;-63
2023/01/04 01:28:00;;;;;;;7.97;2.45;;;;;;;4.81;82.40;101787.91;2098482;28;20845;-63
2023/01/04 01:29:03;;;;;;;4.90;2.25;;;;;;;4.73;82.23;101776.66;2089760;28;20306;-63
2023/01/04 01:30:09;;;;;;;7.95;2.42;;;;;;;4.65;81.96;101777.72;2089364;28;20275;-63
2023/01/04 01:31:18;;;;;;;4.82;2.00;;;;;;;4.62;82.03;101781.59;2089645;28;20787;-63
2023/01/04 01:32:21;;;;;;;8.38;2.30;;;;;;;4.62;82.53;101778.13;2083557;28;20288;-63
2023/01/04 01:33:23;;;;;;;6.15;2.33;;;;;;;4.58;82.46;101780.41;2097541;28;20052;-63
2023/01/04 01:34:26;;;;;;;6.85;2.10;;;;;;;4.56;82.66;101773.63;2097922;28;20301;-63
2023/01/04 01:35:29;;;;;;;7.38;2.03;;;;;;;4.59;82.19;101770.56;2089808;28;20315;-64
2023/01/04 01:36:35;;;;;;;7.88;2.58;;;;;;;4.56;82.15;101777.13;2105715;28;20270;-63
2023/01/04 01:37:38;;;;;;;4.90;1.80;;;;;;;4.56;82.53;101778.97;2106298;28;20297;-63
2023/01/04 01:38:42;;;;;;;7.15;2.30;;;;;;;4.60;82.86;101780.16;2106406;28;20292;-63
2023/01/04 01:39:44;;;;;;;5.10;2.40;;;;;;;4.69;82.57;101778.09;2098048;28;20797;-63
2023/01/04 01:40:47;;;;;;;6.15;2.22;;;;;;;4.70;82.91;101775.25;2089019;28;20295;-63
2023/01/04 01:41:51;;;;;;;7.85;2.67;;;;;;;4.70;82.76;101777.91;2097509;28;20294;-63
2023/01/04 01:42:53;;;;;;;6.88;2.63;;;;;;;4.73;82.77;101769.50;2097514;28;20306;-63
2023/01/04 01:44:07;;;;;;;5.05;2.17;;;;;;;4.75;82.61;101771.94;2098520;28;20337;-63
2023/01/04 01:45:31;;;;;;;9.05;2.88;;;;;;;4.76;82.51;101760.25;2106542;28;20274;-63
2023/01/04 01:46:41;;;;;;;9.60;2.33;;;;;;;4.78;82.41;101764.34;2097817;28;20309;-63
2023/01/04 01:47:45;;;;;;;7.70;3.15;;;;;;;4.79;82.57;101760.66;2092235;28;20291;-63
2023/01/04 01:48:48;;;;;;;7.93;2.65;;;;;;;4.82;82.34;101759.41;2089739;28;20291;-63
2023/01/04 01:49:52;;;;;;;6.30;2.10;;;;;;;4.84;81.91;101762.69;2090198;28;20775;-63
2023/01/04 01:51:03;;;;;;;8.80;2.55;;;;;;;4.83;81.97;101763.72;2081678;28;20347;-63
2023/01/04 01:52:10;;;;;;;11.27;2.45;;;;;;;4.80;81.74;101762.31;2085708;28;20756;-63
2023/01/04 01:53:13;;;;;;;7.03;2.28;;;;;;;4.76;81.33;101763.75;2106362;28;20278;-63
2023/01/04 01:54:40;;;;;;;6.47;2.38;;;;;;;4.73;81.49;101761.50;2106056;28;20282;-63
2023/01/04 01:55:44;;;;;;;6.88;2.15;;;;;;;4.69;81.37;101757.59;2092020;28;20298;-63
2023/01/04 01:56:52;;;;;;;7.80;2.72;;;;;;;4.63;81.53;101759.28;2091231;28;20295;-63
2023/01/04 01:57:57;;;;;;;5.03;2.17;;;;;;;4.62;81.07;101762.16;2089750;28;20287;-63
2023/01/04 01:59:04;;;;;;;5.72;2.50;;;;;;;4.58;81.40;101752.94;2090520;28;20288;-63
2023/01/04 02:00:13;;;;;;;8.35;2.65;;;;;;;4.63;81.99;101758.44;2090960;28;20793;-64
2023/01/04 02:01:17;;;;;;;7.85;2.45;;;;;;;4.67;81.83;101751.69;2099245;28;20282;-63
2023/01/04 02:02:20;;;;;;;9.40;2.78;;;;;;;4.69;81.48;101749.63;2106294;28;20285;-63
2023/01/04 02:03:26;;;;;;;11.00;2.58;;;;;;;4.72;81.69;101759.84;2098152;28;20793;-64
2023/01/04 02:04:29;;;;;;;8.52;2.63;;;;;;;4.72;81.31;101754.53;2098656;28;20793;-63
2023/01/04 02:05:33;;;;;;;8.15;2.72;;;;;;;4.66;81.50;101752.69;2081514;28;20298;-63
2023/01/04 02:06:40;;;;;;;9.45;3.00;;;;;;;4.65;80.99;101748.41;2074351;28;20304;-63
2023/01/04 02:07:43;;;;;;;9.05;2.75;;;;;;;4.69;81.56;101748.81;2082758;28;20780;-63
2023/01/04 02:08:47;;;;;;;8.27;2.60;;;;;;;4.71;81.23;101742.25;2090206;28;20671;-63
2023/01/04 02:09:51;;;;;;;12.13;3.20;;;;;;;4.70;81.56;101740.63;2097957;28;20295;-63
2023/01/04 02:10:52;;;;;;;8.05;2.90;;;;;;;4.70;81.54;101735.28;2097948;28;20301;-63
2023/01/04 02:11:58;;;;;;;7.75;2.92;;;;;;;4.73;81.63;101742.00;2097655;28;20287;-63
2023/01/04 02:13:06;;;;;;;8.02;2.50;;;;;;;4.71;80.92;101736.09;2089496;28;20350;-64
2023/01/04 02:14:26;;;;;;;3.30;2.03;;;;;;;4.72;81.37;101741.19;2090360;28;20803;-63
2023/01/04 02:15:32;;;;;;;9.23;2.20;;;;;;;4.73;80.94;101744.69;2094570;28;20366;-63
2023/01/04 02:16:55;;;;;;;5.13;2.20;;;;;;;4.77;81.51;101740.59;2090706;28;20048;-64
2023/01/04 02:18:14;;;;;;;6.85;2.45;;;;;;;4.81;81.11;101742.59;2087443;28;20789;-63
2023/01/04 02:19:47;;;;;;;4.55;2.20;;;;;;;4.82;80.82;101738.09;2094977;28;20294;-63
2023/01/04 02:20:58;;;;;;;4.72;2.47;;;;;;;4.85;80.97;101741.19;2093648;28;20275;-63
2023/01/04 02:22:14;;;;;;;6.80;2.20;;;;;;;4.88;80.54;101740.72;2092011;28;20287;-63
2023/01/04 02:23:33;;;;;;;7.18;2.45;;;;;;;4.88;80.77;101742.56;2091503;28;20671;-63
2023/01/04 02:24:48;;;;;;;4.65;1.92;;;;;;;4.84;80.38;101736.84;2091961;28;20287;-63
2023/01/04 02:26:11;;;;;;;7.97;2.25;;;;;;;4.85;80.46;101741.19;2085012;28;20424;-64
2023/01/04 02:27:30;;;;;;;4.65;1.92;;;;;;;4.87;80.55;101736.44;2100185;28;20270;-63
2023/01/04 02:28:48;;;;;;;7.25;1.95;;;;;;;4.85;80.03;101732.34;2106493;28;20294;-63
2023/01/04 02:30:09;;;;;;;4.43;1.90;;;;;;;4.76;79.83;101726.47;2097088;28;20295;-63
2023/01/04 02:31:22;;;;;;;9.93;1.90;;;;;;;4.77;80.22;101722.75;2086671;28;20284;-61
2023/01/04 02:32:42;;;;;;;7.53;2.10;;;;;;;4.81;80.44;101726.63;2093031;28;20291;-61
2023/01/04 02:33:56;;;;;;;;;;;;;;;4.80;79.82;101730.31;2106531;28;20277;-61
2023/01/04 02:35:16;;;;;;;10.40;2.10;;;;;;;4.80;79.77;101730.31;2097647;28;19920;-61
2023/01/04 02:36:17;;;;;;;6.00;1.95;;;;;;;4.78;80.07;101732.38;2085763;28;20767;-61
2023/01/04 02:37:33;;;;;;;6.00;2.30;;;;;;;4.76;79.88;101717.63;2081133;28;20296;-61
2023/01/04 02:38:46;;;;;;;6.53;2.00;;;;;;;4.74;79.84;101720.50;2088613;28;20288;-60
2023/01/04 02:40:02;;;;;;;5.70;1.98;;;;;;;4.73;79.77;101710.88;2097848;28;20036;-61
2023/01/04 02:41:39;;;;;;;4.32;2.10;;;;;;;4.73;79.70;101716.22;2077201;28;20045;-61
2023/01/04 02:45:52;;;;;;;10.30;2.17;;;;;;;4.78;79.73;101721.72;2107512;28;20040;-62
2023/01/04 02:50:29;;;;;;;6.38;2.13;;;;;;;4.76;79.52;101723.78;2107514;28;20269;-62
2023/01/04 02:51:30;;;;;;;5.97;2.10;;;;;;;4.80;79.79;101730.31;2107964;28;20289;-62
2023/01/04 02:52:33;;;;;;;4.50;2.00;;;;;;;4.81;79.53;101737.28;2107740;28;20281;-62
2023/01/04 02:53:39;;;;;;;5.75;2.20;;;;;;;4.82;79.47;101741.59;2107668;28;20447;-62
2023/01/04 02:54:48;;;;;;;4.60;1.98;;;;;;;4.82;79.31;101736.28;2100283;28;20306;-62
2023/01/04 02:56:36;;;;;;;3.50;1.65;;;;;;;4.77;79.18;101743.25;2091877;28;20276;-62
2023/01/04 02:58:03;;;;;;;5.70;1.95;;;;;;;4.67;79.08;101730.38;2103885;28;20278;-61
2023/01/04 02:59:50;;;;;;;3.75;1.77;;;;;;;4.62;79.40;101728.34;2102408;28;20282;-62
2023/01/04 03:06:16;;;;;;;4.03;2.00;;;;;;;4.63;79.39;101723.81;2101296;28;20800;-64
2023/01/04 03:07:26;;;;;;;8.02;2.28;;;;;;;4.62;79.70;101716.84;2104335;28;20050;-65
2023/01/04 03:08:31;;;;;;;5.80;2.20;;;;;;;4.62;79.39;101722.19;2107484;28;20657;-67
2023/01/04 03:09:39;;;;;;;4.70;1.90;;;;;;;4.59;80.07;101717.28;2115366;28;20359;-65
2023/01/04 03:10:54;;;;;;;5.70;2.10;;;;;;;4.62;79.98;101716.84;2099851;28;20809;-65
2023/01/04 03:13:37;;;;;;;5.55;2.45;;;;;;;4.63;79.80;101714.00;2111951;28;20668;-65
2023/01/04 03:15:07;;;;;;;4.72;2.10;;;;;;;4.65;79.51;101713.78;2100439;28;20596;-64
2023/01/04 03:16:19;;;;;;;8.40;2.15;;;;;;;4.64;79.47;101717.47;2101381;28;20036;-64
2023/01/04 03:17:26;;;;;;;9.43;2.63;;;;;;;4.64;80.15;101714.81;2093910;28;20342;-64
2023/01/04 03:18:34;;;;;;;5.35;2.22;;;;;;;4.66;80.14;101718.06;2100872;28;20289;-64
2023/01/04 03:19:53;;;;;;;6.18;2.17;;;;;;;4.67;79.47;101708.25;2100037;28;20290;-64
2023/01/04 03:20:58;;;;;;;9.25;2.15;;;;;;;4.65;80.07;101711.13;2101623;28;20291;-64
2023/01/04 03:22:00;;;;;;;4.30;2.30;;;;;;;4.66;79.39;101707.41;2091606;28;20037;-65
2023/01/04 03:36:16;;;;;;;5.95;2.60;;;;;;;4.49;79.23;101687.63;2068416;28;20294;-64
2023/01/04 03:37:39;;;;;;;12.82;2.95;;;;;;;4.48;79.65;101693.97;2073828;28;20664;-64
2023/01/04 03:49:10;;;;;;;5.25;2.35;;;;;;;4.37;79.11;101666.13;2109688;28;20281;-65
2023/01/04 03:50:31;;;;;;;5.47;2.55;;;;;;;4.35;79.54;101669.03;2107193;28;20286;-65
2023/01/04 03:51:37;;;;;;;11.38;3.45;;;;;;;4.31;79.30;101666.97;2101812;28;20295;-65
2023/01/04 03:52:44;;;;;;;9.57;2.38;;;;;;;4.28;79.43;101670.88;2100196;28;20745;-64
2023/01/04 03:53:51;;;;;;;5.45;2.33;;;;;;;4.29;79.59;101664.53;2099417;28;20345;-65
2023/01/04 03:54:59;;;;;;;5.82;2.72;;;;;;;4.27;79.46;101660.44;2100788;28;20290;-65
2023/01/04 03:56:02;;;;;;;7.60;3.05;;;;;;;4.26;79.04;101659.63;2099635;28;20286;-65
2023/01/04 03:57:06;;;;;;;11.50;3.53;;;;;;;4.28;79.38;101657.56;2091302;28;20287;-65
2023/01/04 03:58:10;;;;;;;6.63;2.80;;;;;;;4.31;79.46;101649.16;2090729;28;20755;-65
2023/01/04 03:59:12;;;;;;;9.80;2.72;;;;;;;4.31;79.37;101656.31;2083371;28;20295;-64
2023/01/04 04:00:17;;;;;;;8.25;3.13;;;;;;;4.31;79.18;101643.81;2090794;28;20287;-64
2023/01/04 04:01:20;;;;;;;7.68;2.80;;;;;;;4.31;79.73;101649.16;2090770;28;20294;-65
2023/01/04 04:02:42;;;;;;;8.50;2.80;;;;;;;4.33;79.11;101648.97;2098950;28;20750;-65
2023/01/04 04:09:11;;;;;;;6.05;3.00;;;;;;;4.18;79.64;101626.06;2107226;28;20289;-64
2023/01/04 04:10:14;;;;;;;8.95;2.95;;;;;;;4.18;79.39;101626.06;2098615;28;20286;-64
2023/01/04 04:11:31;;;;;;;9.57;3.30;;;;;;;4.22;79.84;101620.31;2090654;28;20290;-64
2023/01/04 04:12:34;;;;;;;5.05;2.70;;;;;;;4.21;79.38;101621.34;2092544;28;20307;-64
2023/01/04 04:13:39;;;;;;;8.43;3.10;;;;;;;4.17;79.11;101615.63;2090642;28;20743;-64
2023/01/04 04:14:43;;;;;;;8.80;2.92;;;;;;;4.19;79.38;101616.22;2091289;28;20295;-64
2023/01/04 04:15:47;;;;;;;7.20;3.33;;;;;;;4.22;79.76;101623.78;2099371;28;20769;-64
2023/01/04 04:16:53;;;;;;;11.60;3.03;;;;;;;4.23;79.79;101612.13;2106691;28;20290;-64
2023/01/04 04:17:56;;;;;;;8.20;3.10;;;;;;;4.23;79.22;101613.97;2098820;28;20782;-65
2023/01/04 04:19:00;;;;;;;6.78;3.20;;;;;;;4.20;79.61;101607.22;2082099;28;20729;-65
2023/01/04 04:20:05;;;;;;;10.05;2.80;;;;;;;4.20;79.51;101607.22;2098810;28;20682;-65
2023/01/04 04:21:07;;;;;;;8.05;3.25;;;;;;;4.22;79.61;101607.81;2090166;28;20298;-65
2023/01/04 04:22:09;;;;;;;8.95;3.38;;;;;;;4.22;79.48;101602.50;2090915;28;20664;-64
2023/01/04 04:23:11;;;;;;;6.55;2.90;;;;;;;4.21;79.50;101602.72;2090217;28;20362;-64
2023/01/04 04:24:19;;;;;;;10.02;3.25;;;;;;;4.20;79.05;101593.91;2090374;28;20314;-64
2023/01/04 04:25:25;;;;;;;7.95;2.72;;;;;;;4.19;79.06;101592.25;2093163;28;20798;-64
2023/01/04 04:26:30;;;;;;;9.43;3.75;;;;;;;4.17;79.23;101591.69;2091463;28;20292;-64
2023/01/04 04:27:32;;;;;;;6.40;2.80;;;;;;;4.15;79.51;101591.06;2074071;28;20755;-64
2023/01/04 04:28:35;;;;;;;7.70;2.78;;;;;;;4.15;79.76;101588.41;2082544;28;20767;-64
2023/01/04 04:29:36;;;;;;;6.20;2.88;;;;;;;4.17;79.51;101591.69;2081969;28;20612;-64
2023/01/04 04:30:39;;;;;;;10.05;3.00;;;;;;;4.19;79.23;101586.94;2073764;28;20657;-64
2023/01/04 04:31:41;;;;;;;6.22;2.78;;;;;;;4.22;79.50;101589.19;2082529;28;20288;-64
2023/01/04 04:32:44;;;;;;;5.25;2.88;;;;;;;4.22;79.75;101583.84;2082293;28;20292;-64
2023/01/04 04:33:46;;;;;;;11.02;3.65;;;;;;;4.24;79.48;101571.16;2082354;28;20296;-64
2023/01/04 04:34:48;;;;;;;7.63;2.67;;;;;;;4.25;79.13;101570.13;2098735;28;20283;-64
2023/01/04 04:35:51;;;;;;;6.30;2.80;;;;;;;4.25;79.28;101567.47;2098387;28;20306;-64
2023/01/04 04:36:54;;;;;;;5.95;2.88;;;;;;;4.26;79.19;101573.63;2082068;28;20695;-64
2023/01/04 04:37:56;;;;;;;13.20;3.60;;;;;;;4.26;79.18;101570.97;2090557;28;20643;-64
2023/01/04 04:39:04;;;;;;;7.28;3.15;;;;;;;4.25;79.22;101571.97;2098793;28;20278;-64
2023/01/04 04:41:37;;;;;;;10.18;3.17;;;;;;;4.23;79.65;101569.53;2099004;28;20301;-64
2023/01/04 04:41:38;;;;;;;7.28;3.03;;;;;;;4.23;79.40;101574.88;2101460;28;20301;-64
2023/01/04 04:42:39;;;;;;;7.78;2.72;;;;;;;4.20;79.24;101583.28;2091194;28;20280;-64
2023/01/04 04:43:42;;;;;;;6.40;2.60;;;;;;;4.21;79.37;101574.25;2097712;28;20738;-65
2023/01/04 04:44:44;;;;;;;5.30;2.38;;;;;;;4.22;79.17;101573.22;2098224;28;20646;-64
2023/01/04 04:45:46;;;;;;;10.85;3.53;;;;;;;4.22;79.13;101569.72;2098677;28;20295;-64
2023/01/04 04:46:49;;;;;;;9.43;2.80;;;;;;;4.21;79.19;101568.91;2098245;28;20287;-64
2023/01/04 04:47:52;;;;;;;8.52;3.22;;;;;;;4.21;79.13;101571.59;2098704;28;20658;-65
2023/01/04 04:48:54;;;;;;;6.10;2.72;;;;;;;4.22;79.52;101564.41;2106414;28;20390;-64
2023/01/04 04:49:59;;;;;;;9.20;2.50;;;;;;;4.22;79.16;101561.75;2098805;28;20673;-64
2023/01/04 04:51:01;;;;;;;5.90;2.72;;;;;;;4.23;79.62;101560.75;2089965;28;20284;-64
2023/01/04 04:52:04;;;;;;;11.85;2.67;;;;;;;4.24;79.27;101560.50;2098868;28;20278;-65
2023/01/04 04:53:07;;;;;;;6.45;2.83;;;;;;;4.28;79.10;101567.03;2106727;28;20281;-65
2023/01/04 04:54:13;;;;;;;7.45;3.08;;;;;;;4.30;79.32;101565.00;2098514;28;20286;-64
2023/01/04 04:55:15;;;;;;;6.88;3.13;;;;;;;4.30;79.13;101562.34;2090600;28;20377;-64
2023/01/04 04:56:21;;;;;;;10.52;3.13;;;;;;;4.28;79.11;101555.59;2091004;28;20857;-65
2023/01/04 04:57:23;;;;;;;10.77;2.78;;;;;;;4.29;79.46;101558.03;2098948;28;20303;-65
2023/01/04 04:58:26;;;;;;;10.07;3.30;;;;;;;4.31;78.93;101557.81;2098220;28;20690;-65
2023/01/04 04:59:28;;;;;;;13.10;3.83;;;;;;;4.30;79.35;101554.34;2090296;28;20306;-65
2023/01/04 05:00:31;;;;;;;7.32;2.92;;;;;;;4.29;79.00;101551.91;2090446;28;20775;-65
2023/01/04 05:01:33;;;;;;;6.40;2.80;;;;;;;4.28;78.91;101545.75;2106736;28;20761;-65
2023/01/04 05:02:36;;;;;;;10.70;3.00;;;;;;;4.27;78.61;101546.78;2106237;28;20282;-65
2023/01/04 05:03:40;;;;;;;8.00;3.03;;;;;;;4.25;78.69;101535.50;2090286;28;20295;-65
2023/01/04 05:04:43;;;;;;;7.25;2.80;;;;;;;4.20;78.30;101538.03;2082866;28;20292;-65
2023/01/04 05:05:47;;;;;;;6.20;2.90;;;;;;;4.18;78.30;101542.72;2082311;28;20645;-65
2023/01/04 05:06:54;;;;;;;6.70;2.77;;;;;;;4.16;78.83;101542.94;2082617;28;20291;-65
2023/01/04 05:07:56;;;;;;;9.47;3.03;;;;;;;4.17;78.47;101543.75;2074702;28;20292;-65
2023/01/04 05:09:01;;;;;;;6.97;3.07;;;;;;;4.15;78.54;101532.50;2082295;28;20296;-65
2023/01/04 05:10:05;;;;;;;6.28;2.60;;;;;;;4.12;78.32;101535.59;2082601;28;20276;-65
2023/01/04 05:11:10;;;;;;;8.27;2.87;;;;;;;4.09;78.69;101536.00;2090484;28;20298;-65
2023/01/04 05:13:33;;;;;;;4.50;2.20;;;;;;;4.08;78.92;101537.84;2100866;28;20301;-65
2023/01/04 05:14:36;;;;;;;7.83;2.77;;;;;;;4.03;78.71;101527.00;2098100;28;20279;-65
2023/01/04 05:15:43;;;;;;;9.33;2.80;;;;;;;4.03;78.90;101523.53;2098013;28;20287;-65
2023/01/04 05:16:51;;;;;;;5.90;2.08;;;;;;;4.02;78.54;101528.06;2098229;28;20298;-65
2023/01/04 05:17:54;;;;;;;12.13;2.93;;;;;;;4.00;78.71;101532.75;2090521;28;20048;-65
2023/01/04 05:18:59;;;;;;;8.60;2.73;;;;;;;3.98;78.74;101529.50;2090372;28;20366;-65
2023/01/04 05:20:01;;;;;;;4.33;2.43;;;;;;;3.95;78.75;101535.25;2074204;28;20276;-65
2023/01/04 05:21:04;;;;;;;6.10;2.97;;;;;;;3.92;78.38;101533.00;2090635;28;20294;-64
2023/01/04 05:22:06;;;;;;;14.25;2.60;;;;;;;3.88;78.74;101531.81;2114736;28;20277;-65
2023/01/04 05:23:13;;;;;;;7.15;2.60;;;;;;;3.86;78.83;101529.34;2106507;28;20286;-65
2023/01/04 05:24:16;;;;;;;8.13;2.57;;;;;;;3.81;78.37;101531.81;2090793;28;20298;-65
2023/01/04 05:25:21;;;;;;;10.43;2.95;;;;;;;3.79;78.96;101520.56;2097851;28;20285;-65
2023/01/04 05:26:24;;;;;;;11.50;3.07;;;;;;;3.75;78.98;101527.31;2106336;28;20297;-64
2023/01/04 05:27:29;;;;;;;5.30;2.53;;;;;;;3.75;78.70;101519.34;2090054;28;20283;-65
2023/01/04 05:28:32;;;;;;;7.73;3.00;;;;;;;3.75;78.96;101519.34;2090325;28;20287;-65
2023/01/04 05:30:56;;;;;;;10.53;3.63;;;;;;;3.72;79.22;101504.63;2095432;28;20674;-65
2023/01/04 05:31:57;;;;;;;7.67;3.10;;;;;;;3.68;79.28;101502.59;2098177;28;20302;-65
2023/01/04 05:33:02;;;;;;;4.73;2.67;;;;;;;3.65;79.18;101503.81;2089892;28;20295;-65
2023/01/04 05:34:07;;;;;;;7.23;2.70;;;;;;;3.60;79.60;101503.66;2090840;28;20291;-64
2023/01/04 05:35:10;;;;;;;7.37;3.07;;;;;;;3.54;79.50;101504.47;2091264;28;20275;-64
2023/01/04 05:36:16;;;;;;;6.93;2.67;;;;;;;3.48;79.79;101492.84;2096674;28;20278;-64
2023/01/04 05:37:18;;;;;;;7.87;3.23;;;;;;;3.47;79.46;101495.72;2098617;28;20670;-65
2023/01/04 05:38:23;;;;;;;12.63;4.00;;;;;;;3.50;80.07;101482.00;2101773;28;20769;-65
2023/01/04 05:39:26;;;;;;;8.57;2.90;;;;;;;3.57;80.32;101484.63;2103666;28;20278;-65
2023/01/04 05:40:28;;;;;;;7.03;3.00;;;;;;;3.56;80.10;101488.31;2098015;28;20302;-65
2023/01/04 05:42:54;;;;;;;16.37;3.60;;;;;;;3.56;79.86;101478.47;2103445;28;20274;-65
2023/01/04 05:43:57;;;;;;;7.03;3.00;;;;;;;3.57;80.18;101474.81;2103205;28;20281;-65
2023/01/04 05:44:59;;;;;;;12.30;3.30;;;;;;;3.61;79.97;101470.69;2098270;28;20290;-62
2023/01/04 05:46:01;;;;;;;7.27;2.73;;;;;;;3.67;79.77;101474.38;2098214;28;20274;-63
2023/01/04 05:47:04;;;;;;;9.47;2.33;;;;;;;3.69;80.06;101467.00;2090302;28;20369;-63
2023/01/04 05:48:09;;;;;;;7.80;2.87;;;;;;;3.72;79.73;101466.59;2098415;28;20277;-63
2023/01/04 05:49:13;;;;;;;5.43;2.40;;;;;;;3.76;79.72;101472.31;2098574;28;20350;-63
2023/01/04 05:50:21;;;;;;;8.77;3.00;;;;;;;3.72;79.06;101467.41;2098584;28;20278;-63
2023/01/04 05:51:23;;;;;;;8.10;3.03;;;;;;;3.72;79.10;101459.41;2114558;28;20273;-63
2023/01/04 05:52:28;;;;;;;10.57;3.37;;;;;;;3.75;78.85;101460.00;2114427;28;20303;-63
2023/01/04 05:53:30;;;;;;;10.27;3.30;;;;;;;3.74;79.08;101455.72;2098360;28;20298;-63
2023/01/04 05:54:33;;;;;;;10.93;3.37;;;;;;;3.76;79.14;101461.66;2106567;28;20286;-63
2023/01/04 05:55:36;;;;;;;8.03;3.20;;;;;;;3.75;79.06;101455.50;2098084;28;20301;-64
2023/01/04 05:56:40;;;;;;;7.57;3.47;;;;;;;3.80;79.03;101460.19;2106732;28;20630;-64
2023/01/04 05:57:46;;;;;;;9.47;3.20;;;;;;;3.80;78.53;101458.34;2109059;28;20278;-63